LFLXLEXJ

Guest
Details From LFLX - Chateauroux Deols
To LEXJ - Santander
Flight Number -
Tags Generated
Created
Modified
Stats Distance 312 nm / 578 km
Max Altitude 0 ft / 0 m
Waypoints 3
Social Downloads 1
Likes 0
Share VATSIM

Download

Looking for another format? Having issues loading an existing format? Contact us
Advertisement - Login to hide

Notes

Generated

Route

LFLX MAGDA LEXJ

ID Type Via Altitude Latitude Longitude Leg Dist Tot Dist Heading (true) Name
O LFLX APT - 0 ft / 0 m 46.85056˚ 1.71917˚ - 0 nm - -
MAGDA FIX - 0 ft / 0 m 43.48816˚ -3.77539˚ 307 nm 307 nm 231° / 227° -
O LEXJ APT - 0 ft / 0 m 43.43078˚ -3.83392˚ 4 nm 312 nm 217° / 217° -

Altitude Profile

Advertisement - Login to hide

Weather


0- 5 10 15 20 25 30 35+ Temperature / ° C

Clouds and Precipitation
Forecast for 2018-05-21 12:00 UTC. Updated 2 hours ago

Ground ~20,000 ft ~40,000 ft Winds

LFLX

Details ICAO LFLX (CHR)
Name Chateauroux Deols
Region France
Timezone Europe/Paris (UTC+2.0)
Stats Elevation 529 ft / 161 m (AMSL)
Location 46.863750° 1.731667°
Runways 1
Magnetic Variation 0.581° E

METAR

LFLX 211300Z AUTO VRB04KT CAVOK 24/13 Q1011 TEMPO -TSRA SCT060CB BKN080

Decode

TAF

TAF AMD LFLX 211143Z 2112/2218 03003KT 9999 SCT045 TEMPO 2112/2120 SHRA SCT060TCU PROB30 TEMPO 2113/2118 01012G30KT -TSRA SCT060CB BKN080 BECMG 2120/2122 VRB03KT CAVOK PROB30 TEMPO 2202/2206 4500 BR NSC BECMG 2209/2211 30005KT 9999 SCT045 TEMPO 2212/2218 SHRA SCT060TCU PROB30 TEMPO 2214/2218 30012G25KT -TSRA SCT060CB

Decode

Departure Runways

ID Width Length Bearing (true) Bearing (mag) Surface Threshold Offset Overrun Length
04 148 ft / 45 m 11,473 ft / 3,497 m 32.92° 32.34° Concrete 0 ft / 0 m 0 ft / 0 m
22 148 ft / 45 m 11,473 ft / 3,497 m 212.94° 212.36° Concrete 0 ft / 0 m 0 ft / 0 m

LEXJ

Details ICAO LEXJ (SDR)
Name Santander
Region Spain
Timezone Europe/Madrid (UTC+2.0)
Stats Elevation 16 ft / 5 m (AMSL)
Location 43.427188° -3.820470°
Runways 1
Magnetic Variation 0.858° W

METAR

LEXJ 211300Z 05005KT 350V110 9999 FEW030 19/15 Q1011

Decode

TAF

TAF LEXJ 210800Z 2109/2209 34009KT CAVOK TX20/2114Z TN12/2206Z PROB40 TEMPO 2112/2120 SCT030TCU PROB40 TEMPO 2121/2208 3000 BR PROB30 TEMPO 2200/2209 1500 BCFG BKN005

Decode

Destination Runways

ID Width Length Bearing (true) Bearing (mag) Surface Threshold Offset Overrun Length
11 148 ft / 45 m 7,597 ft / 2,316 m 110.20° 111.06° Asphalt 0 ft / 0 m 98 ft / 30 m
29 148 ft / 45 m 7,597 ft / 2,316 m 290.22° 291.08° Asphalt 0 ft / 0 m 0 ft / 0 m

Approach Navaids

Runway Type Ident Frequency Range Bearing (true) Bearing (mag) Slope Elevation
29 Localiser STA 110.90 MHz 18 nm / 33 km 290.19° 291.05° - 16 ft / 5 m (AMSL)
29 Glidescope STA 110.90 MHz 10 nm / 19 km 290.21° 291.06° 3.00° 16 ft / 5 m (AMSL)
29 DME STA 110.90 MHz 18 nm / 33 km - - - 26 ft / 8 m (AMSL)